Time;durP1;ratioP1;P1;durP2;ratioP2;P2;SDS_P1;SDS_P2;PMS_P1;PMS_P2;Temp;Humidity;BMP_temperature;BMP_pressure;BME280_temperature;BME280_humidity;BME280_pressure;Samples;Min_cycle;Max_cycle;Signal;HPM_P1;HPM_P2
2024/01/23 00:02:11;;;;;;;;;;;;;;;;;;4952570;28;19930;-66
2024/01/23 00:04:38;;;;;;;;;;;;;;;;;;4982528;28;20540;-67
2024/01/23 00:07:05;;;;;;;;;;;;;;;;;;4974082;28;19931;-67
2024/01/23 00:09:33;;;;;;;;;;;;;;;;;;4955344;28;19930;-67
2024/01/23 00:12:02;;;;;;;;;;;;;;;;;;4977023;28;20386;-67
2024/01/23 00:14:29;;;;;;;;;;;;;;;;;;4951587;28;19934;-67
2024/01/23 00:16:56;;;;;;;;;;;;;;;;;;4952239;28;19954;-67
2024/01/23 00:19:23;;;;;;;;;;;;;;;;;;4951735;28;20475;-68
2024/01/23 00:21:50;;;;;;;;;;;;;;;;;;4952091;28;20023;-67
2024/01/23 00:24:17;;;;;;;;;;;;;;;;;;4952021;28;19930;-67
2024/01/23 00:26:44;;;;;;;;;;;;;;;;;;4952401;28;19984;-68
2024/01/23 00:29:11;;;;;;;;;;;;;;;;;;4958510;28;19931;-67
2024/01/23 00:31:38;;;;;;;;;;;;;;;;;;4952337;28;20393;-67
2024/01/23 00:34:05;;;;;;;;;;;;;;;;;;4951888;28;19930;-67
2024/01/23 00:36:32;;;;;;;;;;;;;;;;;;5039104;28;19924;-67
2024/01/23 00:38:59;;;;;;;;;;;;;;;;;;5002403;28;20379;-67
2024/01/23 00:41:26;;;;;;;;;;;;;;;;;;5003873;28;20001;-67
2024/01/23 00:43:53;;;;;;;;;;;;;;;;;;4952062;28;19934;-68
2024/01/23 00:46:21;;;;;;;;;;;;;;;;;;4943934;28;19926;-67
2024/01/23 00:48:48;;;;;;;;;;;;;;;;;;4989844;28;19925;-67
2024/01/23 00:51:15;;;;;;;;;;;;;;;;;;5025084;28;19932;-67
2024/01/23 00:53:42;;;;;;;;;;;;;;;;;;5052392;28;19933;-67
2024/01/23 00:56:09;;;;;;;;;;;;;;;;;;4994821;28;20401;-68
2024/01/23 00:58:36;;;;;;;;;;;;;;;;;;4950686;28;19988;-68
2024/01/23 01:01:03;;;;;;;;;;;;;;;;;;4967111;28;19934;-68
2024/01/23 01:03:30;;;;;;;;;;;;;;;;;;4962221;28;19995;-68
2024/01/23 01:05:57;;;;;;;;;;;;;;;;;;4993939;28;19927;-68
2024/01/23 01:08:24;;;;;;;;;;;;;;;;;;4945407;28;19927;-67
2024/01/23 01:10:51;;;;;;;;;;;;;;;;;;4952413;28;19980;-68
2024/01/23 01:13:18;;;;;;;;;;;;;;;;;;4950775;28;19930;-68
2024/01/23 01:15:45;;;;;;;;;;;;;;;;;;4950640;28;19934;-67
2024/01/23 01:18:12;;;;;;;;;;;;;;;;;;4951106;28;20381;-68
2024/01/23 01:20:39;;;;;;;;;;;;;;;;;;4951814;28;20396;-68
2024/01/23 01:23:07;;;;;;;;;;;;;;;;;;4950829;28;19927;-67
2024/01/23 01:25:34;;;;;;;;;;;;;;;;;;4950911;28;20385;-68
2024/01/23 01:28:01;;;;;;;;;;;;;;;;;;4951150;28;20298;-68
2024/01/23 01:30:29;;;;;;;;;;;;;;;;;;4950479;28;20401;-68
2024/01/23 01:32:56;;;;;;;;;;;;;;;;;;4951169;28;19933;-68
2024/01/23 01:35:23;;;;;;;;;;;;;;;;;;4951380;28;19972;-67
2024/01/23 01:37:50;;;;;;;;;;;;;;;;;;4964821;28;19933;-67
2024/01/23 01:40:17;;;;;;;;;;;;;;;;;;4953116;28;20432;-67
2024/01/23 01:42:44;;;;;;;;;;;;;;;;;;4950513;28;20370;-68
2024/01/23 01:45:11;;;;;;;;;;;;;;;;;;4950154;28;19972;-68
2024/01/23 01:47:41;;;;;;;;;;;;;;;;;;4950533;28;19930;-68
2024/01/23 01:50:08;;;;;;;;;;;;;;;;;;4950173;28;19934;-68
2024/01/23 01:52:35;;;;;;;;;;;;;;;;;;4952104;28;19926;-67
2024/01/23 01:55:02;;;;;;;;;;;;;;;;;;4957467;28;19988;-68
2024/01/23 01:57:31;;;;;;;;;;;;;;;;;;4954859;28;19980;-68
2024/01/23 01:59:58;;;;;;;;;;;;;;;;;;4956018;28;20385;-68
2024/01/23 02:02:25;;;;;;;;;;;;;;;;;;4953679;28;19949;-68
2024/01/23 02:04:52;;;;;;;;;;;;;;;;;;4953451;28;19930;-68
2024/01/23 02:07:19;;;;;;;;;;;;;;;;;;4955024;28;19930;-68
2024/01/23 02:09:46;;;;;;;;;;;;;;;;;;4955125;28;19927;-67
2024/01/23 02:12:13;;;;;;;;;;;;;;;;;;4957653;28;19927;-68
2024/01/23 02:14:40;;;;;;;;;;;;;;;;;;4954051;28;19988;-68
2024/01/23 02:17:07;;;;;;;;;;;;;;;;;;4954090;28;19926;-68
2024/01/23 02:19:34;;;;;;;;;;;;;;;;;;4953780;28;19927;-68
2024/01/23 02:22:01;;;;;;;;;;;;;;;;;;4953436;28;19926;-66
2024/01/23 02:24:28;;;;;;;;;;;;;;;;;;4961869;28;20060;-67
2024/01/23 02:26:55;;;;;;;;;;;;;;;;;;5020845;28;19926;-67
2024/01/23 02:29:22;;;;;;;;;;;;;;;;;;4954273;28;19988;-68
2024/01/23 02:31:49;;;;;;;;;;;;;;;;;;4954145;28;19927;-67
2024/01/23 02:34:16;;;;;;;;;;;;;;;;;;4954886;28;19927;-67
2024/01/23 02:36:43;;;;;;;;;;;;;;;;;;4955059;28;19949;-67
2024/01/23 02:39:10;;;;;;;;;;;;;;;;;;4954130;28;19930;-67
2024/01/23 02:41:37;;;;;;;;;;;;;;;;;;4954337;28;19987;-67
2024/01/23 02:44:04;;;;;;;;;;;;;;;;;;4952799;28;19933;-67
2024/01/23 02:46:31;;;;;;;;;;;;;;;;;;4954055;28;19933;-67
2024/01/23 02:48:58;;;;;;;;;;;;;;;;;;5016742;28;19928;-67
2024/01/23 02:51:26;;;;;;;;;;;;;;;;;;4971586;28;19926;-67
2024/01/23 02:53:53;;;;;;;;;;;;;;;;;;4952910;28;19927;-67
2024/01/23 02:56:20;;;;;;;;;;;;;;;;;;4953441;28;19927;-67
2024/01/23 02:58:47;;;;;;;;;;;;;;;;;;4953113;28;19988;-68
2024/01/23 03:01:14;;;;;;;;;;;;;;;;;;4953654;28;19961;-68
2024/01/23 03:03:41;;;;;;;;;;;;;;;;;;4947522;28;20468;-68
2024/01/23 03:06:08;;;;;;;;;;;;;;;;;;4954325;28;19965;-67
2024/01/23 03:08:35;;;;;;;;;;;;;;;;;;4938757;28;19927;-67
2024/01/23 03:11:02;;;;;;;;;;;;;;;;;;4953181;28;19926;-67
2024/01/23 03:13:29;;;;;;;;;;;;;;;;;;4953628;28;19930;-68
2024/01/23 03:15:56;;;;;;;;;;;;;;;;;;4968718;28;19925;-67
2024/01/23 03:18:23;;;;;;;;;;;;;;;;;;5036117;28;20009;-67
2024/01/23 03:20:50;;;;;;;;;;;;;;;;;;4965018;28;19927;-67
2024/01/23 03:23:17;;;;;;;;;;;;;;;;;;4952900;28;19961;-67
2024/01/23 03:25:44;;;;;;;;;;;;;;;;;;4953257;28;19926;-67
2024/01/23 03:28:11;;;;;;;;;;;;;;;;;;4952967;28;19960;-67
2024/01/23 03:30:39;;;;;;;;;;;;;;;;;;4952338;28;19989;-67
2024/01/23 03:33:06;;;;;;;;;;;;;;;;;;4953195;28;20298;-67
2024/01/23 03:35:33;;;;;;;;;;;;;;;;;;4953492;28;19926;-67
2024/01/23 03:38:00;;;;;;;;;;;;;;;;;;4956295;28;19927;-68
2024/01/23 03:40:27;;;;;;;;;;;;;;;;;;4953386;28;19927;-67
2024/01/23 03:42:54;;;;;;;;;;;;;;;;;;4953243;28;19935;-67
2024/01/23 03:45:21;;;;;;;;;;;;;;;;;;4953009;28;19938;-67
2024/01/23 03:47:48;;;;;;;;;;;;;;;;;;4953242;28;19938;-67
2024/01/23 03:50:15;;;;;;;;;;;;;;;;;;4974496;28;20398;-67
2024/01/23 03:52:42;;;;;;;;;;;;;;;;;;4952791;28;19957;-67
2024/01/23 03:55:09;;;;;;;;;;;;;;;;;;4952131;28;19957;-67
2024/01/23 03:57:36;;;;;;;;;;;;;;;;;;4952569;28;19930;-67
2024/01/23 04:00:04;;;;;;;;;;;;;;;;;;4952834;28;19926;-67
2024/01/23 04:02:36;;;;;;;;;;;;;;;;;;4951679;28;19926;-67
2024/01/23 04:05:04;;;;;;;;;;;;;;;;;;4952285;28;19933;-67
2024/01/23 04:07:31;;;;;;;;;;;;;;;;;;4952079;28;19932;-67
2024/01/23 04:09:58;;;;;;;;;;;;;;;;;;4952825;28;19984;-67
2024/01/23 04:12:25;;;;;;;;;;;;;;;;;;4952534;28;19972;-66
2024/01/23 04:14:52;;;;;;;;;;;;;;;;;;4951228;28;20400;-68
2024/01/23 04:17:19;;;;;;;;;;;;;;;;;;4951506;28;19935;-66
2024/01/23 04:19:46;;;;;;;;;;;;;;;;;;4952147;28;20447;-66
2024/01/23 04:22:13;;;;;;;;;;;;;;;;;;4951868;28;20425;-66
2024/01/23 04:24:43;;;;;;;;;;;;;;;;;;4951572;28;21567;-67
2024/01/23 04:27:10;;;;;;;;;;;;;;;;;;4960135;28;19930;-67
2024/01/23 04:29:37;;;;;;;;;;;;;;;;;;4971432;28;19927;-67
2024/01/23 04:32:04;;;;;;;;;;;;;;;;;;4956128;28;20344;-67
2024/01/23 04:34:31;;;;;;;;;;;;;;;;;;4951588;28;19933;-67
2024/01/23 04:36:58;;;;;;;;;;;;;;;;;;4951800;28;19934;-67
2024/01/23 04:39:25;;;;;;;;;;;;;;;;;;4952328;28;19950;-67
2024/01/23 04:41:52;;;;;;;;;;;;;;;;;;4969537;28;19948;-68
2024/01/23 04:44:20;;;;;;;;;;;;;;;;;;4956506;28;19976;-68
2024/01/23 04:46:47;;;;;;;;;;;;;;;;;;4950832;28;19926;-66
2024/01/23 04:49:14;;;;;;;;;;;;;;;;;;4952663;28;19926;-66
2024/01/23 04:51:41;;;;;;;;;;;;;;;;;;4951123;28;19964;-66
2024/01/23 04:54:08;;;;;;;;;;;;;;;;;;4951961;28;19926;-66
2024/01/23 04:56:35;;;;;;;;;;;;;;;;;;4951692;28;19969;-66
2024/01/23 04:59:02;;;;;;;;;;;;;;;;;;4951450;28;20389;-67
2024/01/23 05:01:30;;;;;;;;;;;;;;;;;;4998036;28;19936;-67
2024/01/23 05:03:57;;;;;;;;;;;;;;;;;;4941221;28;19926;-67
2024/01/23 05:06:24;;;;;;;;;;;;;;;;;;4951213;28;19934;-67
2024/01/23 05:08:51;;;;;;;;;;;;;;;;;;4951495;28;19927;-67
2024/01/23 05:11:18;;;;;;;;;;;;;;;;;;4952082;28;19934;-67
2024/01/23 05:13:45;;;;;;;;;;;;;;;;;;4951500;28;20282;-67
2024/01/23 05:16:12;;;;;;;;;;;;;;;;;;4950760;28;19973;-67
2024/01/23 05:18:39;;;;;;;;;;;;;;;;;;4952315;28;19977;-67
2024/01/23 05:21:06;;;;;;;;;;;;;;;;;;4951613;28;19961;-70
2024/01/23 05:23:33;;;;;;;;;;;;;;;;;;4974663;28;19939;-70
2024/01/23 05:26:01;;;;;;;;;;;;;;;;;;4951534;28;19927;-70
2024/01/23 05:28:28;;;;;;;;;;;;;;;;;;4950638;28;19969;-71
2024/01/23 05:30:55;;;;;;;;;;;;;;;;;;4950419;28;19930;-70
2024/01/23 05:33:22;;;;;;;;;;;;;;;;;;4950849;28;20005;-70
2024/01/23 05:35:49;;;;;;;;;;;;;;;;;;4951655;28;19969;-69
2024/01/23 05:38:17;;;;;;;;;;;;;;;;;;4968326;28;20356;-69
2024/01/23 05:40:44;;;;;;;;;;;;;;;;;;4960780;28;19981;-69
2024/01/23 05:43:12;;;;;;;;;;;;;;;;;;4951095;28;19988;-69
2024/01/23 05:45:39;;;;;;;;;;;;;;;;;;4976410;28;19927;-70
2024/01/23 05:48:06;;;;;;;;;;;;;;;;;;4950853;28;19974;-69
2024/01/23 05:50:33;;;;;;;;;;;;;;;;;;4954429;28;19938;-71
2024/01/23 05:53:00;;;;;;;;;;;;;;;;;;4957956;28;19973;-70
2024/01/23 05:55:27;;;;;;;;;;;;;;;;;;4951480;28;19931;-70
2024/01/23 05:57:54;;;;;;;;;;;;;;;;;;4950908;28;20356;-71
2024/01/23 06:00:21;;;;;;;;;;;;;;;;;;4951105;28;19933;-71
2024/01/23 06:02:49;;;;;;;;;;;;;;;;;;4968600;28;19927;-70
2024/01/23 06:05:16;;;;;;;;;;;;;;;;;;4950876;29;19927;-70
2024/01/23 06:07:48;;;;;;;;;;;;;;;;;;4950449;28;19980;-70
2024/01/23 06:10:16;;;;;;;;;;;;;;;;;;4951809;28;19927;-69
2024/01/23 06:12:43;;;;;;;;;;;;;;;;;;4975641;28;19965;-69
2024/01/23 06:15:10;;;;;;;;;;;;;;;;;;4950278;28;19927;-69
2024/01/23 06:17:37;;;;;;;;;;;;;;;;;;4949720;28;19927;-70
2024/01/23 06:20:04;;;;;;;;;;;;;;;;;;4950784;28;19985;-69
2024/01/23 06:22:31;;;;;;;;;;;;;;;;;;4952123;28;19972;-69
2024/01/23 06:24:58;;;;;;;;;;;;;;;;;;4950947;28;20685;-70
2024/01/23 06:27:25;;;;;;;;;;;;;;;;;;4945309;28;19950;-69
2024/01/23 06:29:52;;;;;;;;;;;;;;;;;;4948703;28;19927;-69
2024/01/23 06:32:19;;;;;;;;;;;;;;;;;;4950582;28;19931;-70
2024/01/23 06:34:46;;;;;;;;;;;;;;;;;;4951014;28;19972;-69
2024/01/23 06:37:14;;;;;;;;;;;;;;;;;;4952535;28;20373;-71
2024/01/23 06:39:41;;;;;;;;;;;;;;;;;;4953803;28;19931;-69
2024/01/23 06:42:08;;;;;;;;;;;;;;;;;;4953413;28;19934;-69
2024/01/23 06:44:35;;;;;;;;;;;;;;;;;;4955018;28;19980;-69
2024/01/23 06:47:02;;;;;;;;;;;;;;;;;;4961400;28;20017;-69
2024/01/23 06:49:29;;;;;;;;;;;;;;;;;;4962212;28;19980;-69
2024/01/23 06:51:56;;;;;;;;;;;;;;;;;;4961424;28;20003;-68
2024/01/23 06:54:23;;;;;;;;;;;;;;;;;;4950186;28;19930;-68
2024/01/23 06:56:51;;;;;;;;;;;;;;;;;;4957261;28;19926;-69
2024/01/23 06:59:19;;;;;;;;;;;;;;;;;;4992602;28;19957;-69
2024/01/23 07:01:46;;;;;;;;;;;;;;;;;;4961552;28;20088;-69
2024/01/23 07:04:13;;;;;;;;;;;;;;;;;;4966213;28;19927;-68
2024/01/23 07:06:40;;;;;;;;;;;;;;;;;;4944445;28;19930;-68
2024/01/23 07:09:07;;;;;;;;;;;;;;;;;;4946387;28;19934;-69
2024/01/23 07:11:34;;;;;;;;;;;;;;;;;;4949662;28;20363;-69
2024/01/23 07:14:02;;;;;;;;;;;;;;;;;;4947362;28;19972;-69
2024/01/23 07:19:09;;;;;;;;;;;;;;;;;;4969429;23;19977;-68
2024/01/23 07:21:36;;;;;;;;;;;;;;;;;;4960288;28;19934;-69
2024/01/23 07:24:03;;;;;;;;;;;;;;;;;;4971102;28;19926;-68
2024/01/23 07:26:30;;;;;;;;;;;;;;;;;;4966478;28;19927;-69
2024/01/23 07:28:57;;;;;;;;;;;;;;;;;;4970033;28;19930;-71
2024/01/23 07:31:24;;;;;;;;;;;;;;;;;;4981278;28;19933;-69
2024/01/23 07:33:51;;;;;;;;;;;;;;;;;;4972455;28;19930;-69
2024/01/23 07:36:18;;;;;;;;;;;;;;;;;;4970130;28;19964;-69
2024/01/23 07:38:46;;;;;;;;;;;;;;;;;;4968897;28;19931;-71
2024/01/23 07:41:13;;;;;;;;;;;;;;;;;;4984427;28;19930;-71
2024/01/23 07:43:40;;;;;;;;;;;;;;;;;;4961099;28;19934;-70
2024/01/23 07:46:07;;;;;;;;;;;;;;;;;;4960526;28;19927;-71
2024/01/23 07:48:34;;;;;;;;;;;;;;;;;;4961753;28;19934;-71
2024/01/23 07:51:01;;;;;;;;;;;;;;;;;;4964123;28;19934;-70
2024/01/23 07:53:29;;;;;;;;;;;;;;;;;;4964622;28;19932;-71
2024/01/23 07:55:56;;;;;;;;;;;;;;;;;;4963877;28;19965;-72
2024/01/23 07:58:23;;;;;;;;;;;;;;;;;;4961909;28;19980;-71
2024/01/23 08:00:50;;;;;;;;;;;;;;;;;;4961468;28;19942;-71
2024/01/23 08:03:17;;;;;;;;;;;;;;;;;;4957813;28;20012;-71
2024/01/23 08:05:44;;;;;;;;;;;;;;;;;;4962565;28;19926;-71
2024/01/23 08:08:11;;;;;;;;;;;;;;;;;;4966648;28;19987;-71
2024/01/23 08:10:38;;;;;;;;;;;;;;;;;;4962721;28;19926;-70
2024/01/23 08:13:06;;;;;;;;;;;;;;;;;;4965124;28;20005;-71
2024/01/23 08:15:34;;;;;;;;;;;;;;;;;;4967932;28;19930;-70
2024/01/23 08:18:03;;;;;;;;;;;;;;;;;;4966015;28;20404;-70
2024/01/23 08:20:30;;;;;;;;;;;;;;;;;;4989225;28;19941;-72
2024/01/23 08:22:57;;;;;;;;;;;;;;;;;;4961377;28;19926;-70
2024/01/23 08:25:24;;;;;;;;;;;;;;;;;;4958711;28;20377;-70
2024/01/23 08:27:51;;;;;;;;;;;;;;;;;;4973729;28;20033;-70
2024/01/23 08:30:18;;;;;;;;;;;;;;;;;;4966307;28;19977;-72
2024/01/23 08:32:46;;;;;;;;;;;;;;;;;;4969530;28;19970;-70
2024/01/23 08:35:15;;;;;;;;;;;;;;;;;;4971538;28;19938;-68
2024/01/23 08:37:42;;;;;;;;;;;;;;;;;;5034988;28;19930;-69
2024/01/23 08:40:09;;;;;;;;;;;;;;;;;;5071605;28;19955;-69
2024/01/23 08:42:36;;;;;;;;;;;;;;;;;;4977210;28;20438;-70
2024/01/23 08:45:04;;;;;;;;;;;;;;;;;;4976686;28;19975;-70
2024/01/23 08:47:31;;;;;;;;;;;;;;;;;;4992042;28;19926;-69
2024/01/23 08:49:58;;;;;;;;;;;;;;;;;;4980326;28;19925;-69
2024/01/23 08:52:25;;;;;;;;;;;;;;;;;;4968833;28;19953;-70
2024/01/23 08:54:52;;;;;;;;;;;;;;;;;;4969959;28;19980;-71
2024/01/23 08:57:20;;;;;;;;;;;;;;;;;;4969602;28;19941;-72
2024/01/23 08:59:47;;;;;;;;;;;;;;;;;;4985158;28;20381;-71
2024/01/23 09:02:14;;;;;;;;;;;;;;;;;;5026451;28;20363;-71
2024/01/23 09:04:42;;;;;;;;;;;;;;;;;;4971468;28;19948;-71
2024/01/23 09:07:09;;;;;;;;;;;;;;;;;;4969639;28;20385;-70
2024/01/23 09:09:36;;;;;;;;;;;;;;;;;;4970384;28;19930;-69
2024/01/23 09:12:03;;;;;;;;;;;;;;;;;;4969967;28;19987;-71
2024/01/23 09:14:30;;;;;;;;;;;;;;;;;;4970043;28;19971;-72
2024/01/23 09:16:57;;;;;;;;;;;;;;;;;;4968280;28;19933;-72
2024/01/23 09:19:24;;;;;;;;;;;;;;;;;;4969302;28;19926;-69
2024/01/23 09:21:51;;;;;;;;;;;;;;;;;;4969665;28;20284;-69
2024/01/23 09:24:18;;;;;;;;;;;;;;;;;;4969391;28;19977;-67
2024/01/23 09:26:45;;;;;;;;;;;;;;;;;;4970119;28;19995;-71
2024/01/23 09:29:12;;;;;;;;;;;;;;;;;;4969052;28;19980;-72
2024/01/23 09:31:39;;;;;;;;;;;;;;;;;;4969830;28;19930;-72
2024/01/23 09:34:07;;;;;;;;;;;;;;;;;;4971453;28;19930;-72
2024/01/23 09:36:34;;;;;;;;;;;;;;;;;;4970920;28;19926;-73
2024/01/23 09:39:01;;;;;;;;;;;;;;;;;;4969653;28;19940;-72
2024/01/23 09:41:28;;;;;;;;;;;;;;;;;;4969485;28;20376;-72
2024/01/23 09:43:55;;;;;;;;;;;;;;;;;;4962036;28;19927;-72
2024/01/23 09:46:23;;;;;;;;;;;;;;;;;;4961773;28;19984;-73
2024/01/23 09:48:50;;;;;;;;;;;;;;;;;;4962180;28;20030;-72
2024/01/23 09:51:17;;;;;;;;;;;;;;;;;;4983244;28;20387;-71
2024/01/23 09:53:44;;;;;;;;;;;;;;;;;;4983193;28;19930;-72
2024/01/23 09:56:12;;;;;;;;;;;;;;;;;;4964994;28;19944;-72
2024/01/23 09:58:39;;;;;;;;;;;;;;;;;;4967295;28;19972;-71
2024/01/23 10:01:06;;;;;;;;;;;;;;;;;;4962799;28;20405;-72
2024/01/23 10:03:33;;;;;;;;;;;;;;;;;;4964784;28;19926;-72
2024/01/23 10:06:00;;;;;;;;;;;;;;;;;;4964593;28;20029;-72
2024/01/23 10:08:27;;;;;;;;;;;;;;;;;;4967689;28;19930;-72
2024/01/23 10:10:54;;;;;;;;;;;;;;;;;;4963837;28;19930;-72
2024/01/23 10:13:21;;;;;;;;;;;;;;;;;;4962533;28;20282;-71
2024/01/23 10:15:49;;;;;;;;;;;;;;;;;;4967405;28;19927;-72
2024/01/23 10:18:16;;;;;;;;;;;;;;;;;;4966735;28;19934;-72
2024/01/23 10:20:43;;;;;;;;;;;;;;;;;;4971750;28;19957;-70
2024/01/23 10:23:10;;;;;;;;;;;;;;;;;;4980030;28;19929;-70
2024/01/23 10:25:37;;;;;;;;;;;;;;;;;;4967812;28;19987;-69
2024/01/23 10:28:04;;;;;;;;;;;;;;;;;;4965392;28;20282;-70
2024/01/23 10:30:31;;;;;;;;;;;;;;;;;;4969812;28;19968;-71
2024/01/23 10:32:58;;;;;;;;;;;;;;;;;;4964112;28;19926;-69
2024/01/23 10:35:25;;;;;;;;;;;;;;;;;;4962440;28;19984;-69
2024/01/23 10:37:52;;;;;;;;;;;;;;;;;;4962906;28;20021;-70
2024/01/23 10:40:23;;;;;;;;;;;;;;;;;;4971844;28;19977;-69
2024/01/23 10:42:50;;;;;;;;;;;;;;;;;;4969196;28;19980;-68
2024/01/23 10:45:17;;;;;;;;;;;;;;;;;;4969911;28;19930;-69
2024/01/23 10:47:44;;;;;;;;;;;;;;;;;;4960413;28;19926;-69
2024/01/23 10:50:11;;;;;;;;;;;;;;;;;;4966326;28;19926;-68
2024/01/23 10:52:38;;;;;;;;;;;;;;;;;;4962380;28;20415;-69
2024/01/23 10:55:05;;;;;;;;;;;;;;;;;;4988010;28;19936;-69
2024/01/23 10:57:32;;;;;;;;;;;;;;;;;;4973568;28;20443;-68
2024/01/23 10:59:59;;;;;;;;;;;;;;;;;;4985702;28;19926;-68
2024/01/23 11:02:26;;;;;;;;;;;;;;;;;;4961994;28;19934;-67
2024/01/23 11:04:54;;;;;;;;;;;;;;;;;;4967067;28;19943;-67
2024/01/23 11:07:21;;;;;;;;;;;;;;;;;;4972334;28;20003;-68
2024/01/23 11:09:48;;;;;;;;;;;;;;;;;;4965006;28;19926;-67
2024/01/23 11:12:15;;;;;;;;;;;;;;;;;;4965333;28;19926;-68
2024/01/23 11:14:42;;;;;;;;;;;;;;;;;;4964217;28;19926;-68
2024/01/23 11:17:09;;;;;;;;;;;;;;;;;;4967813;28;20423;-68
2024/01/23 11:19:36;;;;;;;;;;;;;;;;;;4966276;28;19926;-69
2024/01/23 11:22:03;;;;;;;;;;;;;;;;;;4964241;28;19926;-66
2024/01/23 11:24:30;;;;;;;;;;;;;;;;;;4970804;28;19977;-66
2024/01/23 11:26:57;;;;;;;;;;;;;;;;;;4964203;28;19980;-66
2024/01/23 11:29:24;;;;;;;;;;;;;;;;;;4969123;28;20389;-66
2024/01/23 11:31:52;;;;;;;;;;;;;;;;;;4970161;28;19926;-66
2024/01/23 11:34:19;;;;;;;;;;;;;;;;;;4968352;28;20016;-64
2024/01/23 11:36:46;;;;;;;;;;;;;;;;;;4960460;28;19926;-65
2024/01/23 11:39:13;;;;;;;;;;;;;;;;;;4966726;28;20388;-66
2024/01/23 11:41:40;;;;;;;;;;;;;;;;;;4968695;28;20335;-66
2024/01/23 11:44:07;;;;;;;;;;;;;;;;;;4965274;28;20266;-65
2024/01/23 11:46:34;;;;;;;;;;;;;;;;;;4964310;28;19956;-67
2024/01/23 11:49:01;;;;;;;;;;;;;;;;;;4965175;28;19926;-66
2024/01/23 11:51:28;;;;;;;;;;;;;;;;;;4972739;28;20298;-66
2024/01/23 11:53:55;;;;;;;;;;;;;;;;;;4977351;28;19927;-66
2024/01/23 11:56:22;;;;;;;;;;;;;;;;;;4967148;28;19930;-65
2024/01/23 11:58:49;;;;;;;;;;;;;;;;;;4966370;28;20257;-66
2024/01/23 12:01:16;;;;;;;;;;;;;;;;;;4966513;28;19980;-65
2024/01/23 12:03:43;;;;;;;;;;;;;;;;;;4968254;28;20031;-65
2024/01/23 12:06:10;;;;;;;;;;;;;;;;;;4971698;28;19973;-65
2024/01/23 12:08:37;;;;;;;;;;;;;;;;;;4970777;28;19927;-66
2024/01/23 12:11:04;;;;;;;;;;;;;;;;;;4958673;28;19980;-66
2024/01/23 12:13:32;;;;;;;;;;;;;;;;;;4970301;28;19933;-66
2024/01/23 12:15:59;;;;;;;;;;;;;;;;;;4966245;28;19971;-66
2024/01/23 12:18:27;;;;;;;;;;;;;;;;;;4951465;28;20308;-66
2024/01/23 12:20:56;;;;;;;;;;;;;;;;;;4956003;28;19962;-66
2024/01/23 12:23:23;;;;;;;;;;;;;;;;;;4956337;28;20022;-66
2024/01/23 12:25:50;;;;;;;;;;;;;;;;;;4951955;28;20325;-66
2024/01/23 12:28:18;;;;;;;;;;;;;;;;;;4955701;28;19926;-66
2024/01/23 12:30:45;;;;;;;;;;;;;;;;;;4970835;28;20313;-66
2024/01/23 12:33:12;;;;;;;;;;;;;;;;;;4972235;28;19926;-66
2024/01/23 12:35:39;;;;;;;;;;;;;;;;;;4971545;28;20245;-66
2024/01/23 12:38:06;;;;;;;;;;;;;;;;;;4979580;28;19929;-66
2024/01/23 12:40:33;;;;;;;;;;;;;;;;;;4969236;28;19926;-66
2024/01/23 12:43:00;;;;;;;;;;;;;;;;;;4970104;28;19926;-66
2024/01/23 12:45:27;;;;;;;;;;;;;;;;;;4969637;28;19933;-66
2024/01/23 12:47:54;;;;;;;;;;;;;;;;;;4970998;28;19926;-66
2024/01/23 12:50:22;;;;;;;;;;;;;;;;;;4969466;28;19932;-66
2024/01/23 12:52:49;;;;;;;;;;;;;;;;;;4982522;28;19926;-66
2024/01/23 12:55:16;;;;;;;;;;;;;;;;;;4970583;28;19926;-66
2024/01/23 12:57:44;;;;;;;;;;;;;;;;;;4965153;28;19926;-66
2024/01/23 13:00:11;;;;;;;;;;;;;;;;;;4962439;28;19926;-65
2024/01/23 13:02:38;;;;;;;;;;;;;;;;;;4966983;28;20313;-65
2024/01/23 13:05:05;;;;;;;;;;;;;;;;;;4970422;28;19926;-65
2024/01/23 13:07:32;;;;;;;;;;;;;;;;;;4970290;28;19930;-65
2024/01/23 13:10:00;;;;;;;;;;;;;;;;;;4964883;28;20305;-66
2024/01/23 13:12:27;;;;;;;;;;;;;;;;;;4988673;28;19933;-65
2024/01/23 13:14:54;;;;;;;;;;;;;;;;;;4962814;28;19926;-65
2024/01/23 13:17:21;;;;;;;;;;;;;;;;;;4967330;28;20397;-66
2024/01/23 13:19:49;;;;;;;;;;;;;;;;;;4975637;28;20347;-66
2024/01/23 13:22:16;;;;;;;;;;;;;;;;;;4965047;28;19926;-66
2024/01/23 13:24:43;;;;;;;;;;;;;;;;;;4992826;28;19945;-66
2024/01/23 13:27:10;;;;;;;;;;;;;;;;;;4975929;28;19927;-66
2024/01/23 13:29:37;;;;;;;;;;;;;;;;;;4963664;28;19926;-66
2024/01/23 13:32:07;;;;;;;;;;;;;;;;;;4966101;28;19934;-66
2024/01/23 13:34:34;;;;;;;;;;;;;;;;;;4962932;28;20004;-66
2024/01/23 13:37:04;;;;;;;;;;;;;;;;;;4960580;28;19935;-66
2024/01/23 13:39:31;;;;;;;;;;;;;;;;;;4965143;28;19973;-66
2024/01/23 13:41:58;;;;;;;;;;;;;;;;;;4962673;28;19938;-66
2024/01/23 13:44:25;;;;;;;;;;;;;;;;;;4961287;28;19988;-64
2024/01/23 13:46:52;;;;;;;;;;;;;;;;;;4972004;28;19979;-65
2024/01/23 13:49:19;;;;;;;;;;;;;;;;;;4971590;28;20336;-64
2024/01/23 13:51:47;;;;;;;;;;;;;;;;;;4966625;28;19977;-65
2024/01/23 13:54:15;;;;;;;;;;;;;;;;;;4964728;28;19926;-65
2024/01/23 13:56:42;;;;;;;;;;;;;;;;;;4960475;28;19984;-65
2024/01/23 13:59:09;;;;;;;;;;;;;;;;;;4972692;28;19926;-66
2024/01/23 14:01:36;;;;;;;;;;;;;;;;;;4969345;28;19938;-64
2024/01/23 14:04:04;;;;;;;;;;;;;;;;;;4969341;28;20436;-67
2024/01/23 14:06:31;;;;;;;;;;;;;;;;;;4971315;28;20385;-66
2024/01/23 14:08:58;;;;;;;;;;;;;;;;;;4973032;28;19930;-66
2024/01/23 14:11:25;;;;;;;;;;;;;;;;;;4973713;28;19957;-66
2024/01/23 14:13:52;;;;;;;;;;;;;;;;;;4968301;28;20000;-66
2024/01/23 14:16:19;;;;;;;;;;;;;;;;;;4985371;28;19926;-66
2024/01/23 14:18:47;;;;;;;;;;;;;;;;;;4959884;28;19945;-65
2024/01/23 14:21:14;;;;;;;;;;;;;;;;;;4970180;28;19949;-65
2024/01/23 14:23:41;;;;;;;;;;;;;;;;;;4966491;28;20343;-65
2024/01/23 14:26:08;;;;;;;;;;;;;;;;;;4971020;28;19935;-65
2024/01/23 14:28:35;;;;;;;;;;;;;;;;;;4975075;28;19970;-65
2024/01/23 14:31:02;;;;;;;;;;;;;;;;;;4965969;28;19926;-65
2024/01/23 14:33:29;;;;;;;;;;;;;;;;;;4967292;28;20399;-66
2024/01/23 14:35:57;;;;;;;;;;;;;;;;;;4971808;28;19926;-65
2024/01/23 14:38:25;;;;;;;;;;;;;;;;;;5018037;28;19967;-65
2024/01/23 14:40:52;;;;;;;;;;;;;;;;;;4970844;28;19933;-65
2024/01/23 14:43:19;;;;;;;;;;;;;;;;;;4964071;28;20401;-65
2024/01/23 14:45:46;;;;;;;;;;;;;;;;;;4970256;28;20454;-64
2024/01/23 14:48:14;;;;;;;;;;;;;;;;;;4969804;28;19934;-64
2024/01/23 14:50:41;;;;;;;;;;;;;;;;;;4967791;28;19927;-65
2024/01/23 14:53:08;;;;;;;;;;;;;;;;;;4975734;28;19979;-65
2024/01/23 14:55:35;;;;;;;;;;;;;;;;;;4975193;28;19926;-65
2024/01/23 14:58:02;;;;;;;;;;;;;;;;;;4967573;28;19926;-65
2024/01/23 15:00:30;;;;;;;;;;;;;;;;;;4966642;28;19934;-65
2024/01/23 15:02:57;;;;;;;;;;;;;;;;;;5010640;28;19930;-66
2024/01/23 15:05:24;;;;;;;;;;;;;;;;;;4967381;28;19931;-66
2024/01/23 15:07:51;;;;;;;;;;;;;;;;;;4967368;28;20377;-65
2024/01/23 15:10:18;;;;;;;;;;;;;;;;;;4969134;28;20289;-62
2024/01/23 15:12:45;;;;;;;;;;;;;;;;;;4967042;28;20162;-63
2024/01/23 15:15:15;;;;;;;;;;;;;;;;;;5003563;28;19949;-66
2024/01/23 15:17:43;;;;;;;;;;;;;;;;;;4967537;28;20020;-65
2024/01/23 15:20:11;;;;;;;;;;;;;;;;;;4971010;28;20294;-67
2024/01/23 15:22:38;;;;;;;;;;;;;;;;;;4970630;28;19997;-66
2024/01/23 15:25:05;;;;;;;;;;;;;;;;;;4960126;28;19926;-66
2024/01/23 15:27:33;;;;;;;;;;;;;;;;;;4972814;28;20010;-66
2024/01/23 15:30:00;;;;;;;;;;;;;;;;;;4985680;28;19926;-67
2024/01/23 15:32:31;;;;;;;;;;;;;;;;;;4969362;28;19934;-67
2024/01/23 15:34:59;;;;;;;;;;;;;;;;;;4962634;28;19933;-66
2024/01/23 15:37:29;;;;;;;;;;;;;;;;;;4965462;28;19951;-66
2024/01/23 15:39:59;;;;;;;;;;;;;;;;;;4965482;28;20404;-66
2024/01/23 15:42:30;;;;;;;;;;;;;;;;;;4964948;28;19926;-67
2024/01/23 15:44:58;;;;;;;;;;;;;;;;;;4964978;28;20431;-66
2024/01/23 15:47:27;;;;;;;;;;;;;;;;;;4970096;28;20016;-66
2024/01/23 15:49:54;;;;;;;;;;;;;;;;;;4974808;28;19932;-68
2024/01/23 15:52:23;;;;;;;;;;;;;;;;;;4979042;28;19937;-67
2024/01/23 15:54:52;;;;;;;;;;;;;;;;;;4966154;28;19926;-65
2024/01/23 15:57:20;;;;;;;;;;;;;;;;;;4969267;28;20414;-67
2024/01/23 15:59:48;;;;;;;;;;;;;;;;;;4954940;28;20010;-69
2024/01/23 16:02:15;;;;;;;;;;;;;;;;;;4973108;28;19934;-65
2024/01/23 16:04:42;;;;;;;;;;;;;;;;;;4984326;28;20372;-67
2024/01/23 16:07:14;;;;;;;;;;;;;;;;;;4965531;28;19930;-69
2024/01/23 16:09:46;;;;;;;;;;;;;;;;;;5005311;28;20381;-68
2024/01/23 16:12:19;;;;;;;;;;;;;;;;;;4972668;28;19949;-68
2024/01/23 16:14:47;;;;;;;;;;;;;;;;;;4962561;28;20396;-67
2024/01/23 16:17:15;;;;;;;;;;;;;;;;;;4972819;28;19931;-67
2024/01/23 16:19:43;;;;;;;;;;;;;;;;;;4966604;28;19934;-67
2024/01/23 16:22:10;;;;;;;;;;;;;;;;;;4960116;28;19930;-67
2024/01/23 16:24:40;;;;;;;;;;;;;;;;;;5007199;28;20445;-66
2024/01/23 16:27:08;;;;;;;;;;;;;;;;;;4979979;28;19972;-66
2024/01/23 16:29:35;;;;;;;;;;;;;;;;;;4971096;28;19930;-66
2024/01/23 16:32:03;;;;;;;;;;;;;;;;;;4968343;28;19927;-66
2024/01/23 16:34:30;;;;;;;;;;;;;;;;;;4968622;28;20137;-67
2024/01/23 16:37:01;;;;;;;;;;;;;;;;;;4992619;28;20393;-68
2024/01/23 16:39:28;;;;;;;;;;;;;;;;;;4968463;28;20021;-66
2024/01/23 16:41:55;;;;;;;;;;;;;;;;;;4980391;28;20362;-65
2024/01/23 16:44:26;;;;;;;;;;;;;;;;;;4980816;28;19941;-68
2024/01/23 16:46:55;;;;;;;;;;;;;;;;;;4970410;28;19926;-66
2024/01/23 16:49:22;;;;;;;;;;;;;;;;;;4964520;28;19969;-67